createdAt,value
2019-05-09T00:02:09.662Z,11.25
2019-05-09T00:04:40.972Z,10.86
2019-05-09T00:07:10.361Z,10.68
2019-05-09T00:09:39.593Z,11.01
2019-05-09T00:12:14.216Z,10.74
2019-05-09T00:14:44.607Z,10.90
2019-05-09T00:17:14.233Z,10.66
2019-05-09T00:19:45.334Z,10.53
2019-05-09T00:22:14.459Z,10.49
2019-05-09T00:24:44.815Z,10.65
2019-05-09T00:27:17.778Z,10.41
2019-05-09T00:29:50.315Z,10.93
2019-05-09T00:32:45.532Z,11.16
2019-05-09T00:35:27.670Z,11.00
2019-05-09T00:38:00.329Z,10.73
2019-05-09T00:40:31.492Z,10.73
2019-05-09T00:43:03.973Z,10.87
2019-05-09T00:46:06.470Z,10.97
2019-05-09T00:48:45.531Z,11.31
2019-05-09T00:51:14.165Z,11.29
2019-05-09T00:53:44.408Z,11.56
2019-05-09T00:56:15.045Z,11.67
2019-05-09T00:58:44.217Z,11.67
2019-05-09T01:01:16.218Z,11.70
2019-05-09T01:03:45.529Z,11.54
2019-05-09T01:06:15.932Z,11.60
2019-05-09T01:08:45.584Z,11.64
2019-05-09T01:11:15.677Z,11.56
2019-05-09T01:13:46.192Z,11.56
2019-05-09T01:16:15.435Z,11.62
2019-05-09T01:18:45.685Z,11.87
2019-05-09T01:21:18.106Z,11.96
2019-05-09T01:23:50.520Z,11.84
2019-05-09T01:26:20.015Z,11.84
2019-05-09T01:28:53.854Z,11.84
2019-05-09T01:31:26.350Z,11.99
2019-05-09T01:34:09.108Z,11.99
2019-05-09T01:36:58.715Z,11.90
2019-05-09T01:39:30.010Z,11.81
2019-05-09T01:42:04.632Z,11.58
2019-05-09T01:44:35.570Z,11.49
2019-05-09T01:47:04.257Z,11.71
2019-05-09T01:49:35.450Z,11.54
2019-05-09T01:52:08.356Z,11.59
2019-05-09T01:54:39.394Z,11.63
2019-05-09T01:57:09.462Z,11.60
2019-05-09T01:59:38.595Z,11.67
2019-05-09T02:02:09.060Z,11.83
2019-05-09T02:04:38.826Z,11.83
2019-05-09T02:07:08.347Z,11.96
2019-05-09T02:09:39.691Z,11.88
2019-05-09T02:12:10.049Z,11.64
2019-05-09T02:15:04.919Z,11.36
2019-05-09T02:18:01.275Z,11.69
2019-05-09T02:20:25.619Z,11.19
2019-05-09T02:23:00.481Z,10.48
2019-05-09T02:25:43.769Z,10.48
2019-05-09T02:28:11.485Z,10.68
2019-05-09T02:30:40.454Z,10.87
2019-05-09T02:33:10.162Z,10.80
2019-05-09T02:35:51.747Z,10.75
2019-05-09T02:38:11.037Z,11.30
2019-05-09T02:40:48.514Z,11.30
2019-05-09T02:43:18.662Z,11.27
2019-05-09T02:46:09.859Z,11.53
2019-05-09T02:48:38.594Z,11.25
2019-05-09T02:51:09.236Z,11.29
2019-05-09T02:53:39.507Z,11.06
2019-05-09T02:56:09.452Z,10.78
2019-05-09T02:58:49.393Z,10.49
2019-05-09T03:01:31.618Z,10.48
2019-05-09T03:04:04.511Z,10.53
2019-05-09T03:06:33.942Z,10.51
2019-05-09T03:09:03.640Z,10.56
2019-05-09T03:11:31.868Z,10.47
2019-05-09T03:14:00.730Z,10.37
2019-05-09T03:16:29.471Z,10.25
2019-05-09T03:18:58.608Z,10.18
2019-05-09T03:21:52.524Z,10.18
2019-05-09T03:24:21.495Z,10.20
2019-05-09T03:26:59.487Z,9.65
2019-05-09T03:29:42.103Z,9.44
2019-05-09T03:32:12.717Z,9.39
2019-05-09T03:34:41.823Z,9.22
2019-05-09T03:37:11.035Z,9.26
2019-05-09T03:39:40.040Z,9.52
2019-05-09T03:42:09.120Z,9.34
2019-05-09T03:44:38.610Z,9.43
2019-05-09T03:47:20.557Z,9.29
2019-05-09T03:50:08.389Z,9.45
2019-05-09T03:52:37.795Z,9.60
2019-05-09T03:55:12.904Z,9.53
2019-05-09T03:57:47.602Z,9.51
2019-05-09T04:00:18.027Z,9.47
2019-05-09T04:02:49.485Z,9.17
2019-05-09T04:05:22.400Z,8.94
2019-05-09T04:07:57.598Z,9.06
2019-05-09T04:10:28.218Z,8.94
2019-05-09T04:12:59.716Z,9.11
2019-05-09T04:15:29.274Z,9.22
2019-05-09T04:17:59.320Z,9.38
2019-05-09T04:20:30.717Z,9.48
2019-05-09T04:22:59.970Z,9.60
2019-05-09T04:25:32.759Z,9.59
2019-05-09T04:28:07.466Z,9.79
2019-05-09T04:30:38.954Z,10.04
2019-05-09T04:33:13.884Z,10.43
2019-05-09T04:35:44.599Z,10.50
2019-05-09T04:38:18.894Z,10.54
2019-05-09T04:40:48.932Z,10.54
2019-05-09T04:43:27.303Z,10.76
2019-05-09T04:45:57.893Z,11.54
2019-05-09T04:48:30.935Z,11.54
2019-05-09T04:51:02.059Z,13.11
2019-05-09T04:53:31.342Z,14.97
2019-05-09T04:56:17.570Z,16.41
2019-05-09T04:58:48.166Z,16.91
2019-05-09T05:01:40.088Z,17.32
2019-05-09T05:04:09.600Z,17.65
2019-05-09T05:06:40.991Z,19.05
2019-05-09T05:09:10.464Z,20.77
2019-05-09T05:11:39.493Z,22.54
2019-05-09T05:14:11.272Z,23.54
2019-05-09T05:16:40.151Z,23.21
2019-05-09T05:19:09.288Z,22.52
2019-05-09T05:21:38.282Z,22.86
2019-05-09T05:24:31.790Z,23.78
2019-05-09T05:27:01.092Z,25.37
2019-05-09T05:29:30.914Z,25.44
2019-05-09T05:32:01.928Z,24.37
2019-05-09T05:34:43.144Z,23.51
2019-05-09T05:37:12.120Z,22.10
2019-05-09T05:39:41.160Z,21.11
2019-05-09T05:42:10.101Z,19.83
2019-05-09T05:44:39.518Z,18.93
2019-05-09T05:47:29.121Z,19.23
2019-05-09T05:49:57.816Z,19.09
2019-05-09T05:52:27.793Z,19.08
2019-05-09T05:54:58.189Z,18.55
2019-05-09T05:57:28.103Z,18.04
2019-05-09T05:59:58.498Z,17.23
2019-05-09T06:02:28.214Z,16.56
2019-05-09T06:04:58.293Z,16.20
2019-05-09T06:07:28.523Z,16.24
2019-05-09T06:09:57.575Z,15.69
2019-05-09T06:12:28.499Z,15.38
2019-05-09T06:14:58.279Z,15.02
2019-05-09T06:17:28.630Z,14.82
2019-05-09T06:19:58.977Z,14.44
2019-05-09T06:22:28.403Z,14.29
2019-05-09T06:25:00.146Z,14.35
2019-05-09T06:27:29.587Z,14.09
2019-05-09T06:29:59.164Z,14.16
2019-05-09T06:32:28.612Z,14.16
2019-05-09T06:34:58.114Z,14.67
2019-05-09T06:37:27.841Z,14.67
2019-05-09T06:39:58.306Z,15.20
2019-05-09T06:42:28.743Z,15.50
2019-05-09T06:45:30.776Z,15.50
2019-05-09T06:48:00.456Z,16.46
2019-05-09T06:50:30.572Z,15.91
2019-05-09T06:52:59.448Z,15.91
2019-05-09T06:55:29.738Z,15.65
2019-05-09T06:58:01.507Z,15.30
2019-05-09T07:00:48.819Z,15.33
2019-05-09T07:03:19.846Z,16.25
2019-05-09T07:06:00.297Z,20.15
2019-05-09T07:08:49.182Z,23.81
2019-05-09T07:11:19.184Z,26.52
2019-05-09T07:13:48.545Z,26.71
2019-05-09T07:16:18.710Z,23.83
2019-05-09T07:18:48.562Z,23.83
2019-05-09T07:21:18.978Z,21.93
2019-05-09T07:23:48.051Z,21.93
2019-05-09T07:26:20.619Z,20.90
2019-05-09T07:28:50.001Z,19.15
2019-05-09T07:31:28.367Z,19.15
2019-05-09T07:34:09.482Z,18.38
2019-05-09T07:36:39.536Z,18.38
2019-05-09T07:39:09.487Z,18.41
2019-05-09T07:41:39.461Z,18.58
2019-05-09T07:44:09.502Z,19.18
2019-05-09T07:46:58.063Z,19.66
2019-05-09T07:49:28.547Z,19.56
2019-05-09T07:51:58.447Z,19.92
2019-05-09T07:54:29.471Z,20.09
2019-05-09T07:56:58.458Z,20.82
2019-05-09T07:59:27.665Z,20.82
2019-05-09T08:01:58.115Z,20.37
2019-05-09T08:04:28.642Z,20.37
2019-05-09T08:06:57.920Z,20.21
2019-05-09T08:09:28.254Z,19.45
2019-05-09T08:11:58.755Z,19.17
2019-05-09T08:14:28.573Z,19.13
2019-05-09T08:16:58.295Z,18.83
2019-05-09T08:19:28.100Z,18.83
2019-05-09T08:21:57.795Z,19.05
2019-05-09T08:24:27.815Z,18.09
2019-05-09T08:26:58.024Z,18.02
2019-05-09T08:29:28.251Z,18.16
2019-05-09T08:31:58.296Z,17.81
2019-05-09T08:34:28.506Z,17.65
2019-05-09T08:36:58.134Z,17.65
2019-05-09T08:39:27.853Z,17.58
2019-05-09T08:41:59.291Z,17.48
2019-05-09T08:44:30.218Z,16.95
2019-05-09T08:46:59.023Z,16.48
2019-05-09T08:49:49.724Z,16.53
2019-05-09T08:52:19.895Z,16.37
2019-05-09T08:54:53.313Z,15.87
2019-05-09T08:57:22.426Z,15.89
2019-05-09T08:59:51.419Z,15.67
2019-05-09T09:02:22.352Z,15.77
2019-05-09T09:04:51.429Z,15.76
2019-05-09T09:07:20.470Z,15.48
2019-05-09T09:09:49.420Z,15.81
2019-05-09T09:12:27.257Z,15.18
2019-05-09T09:15:18.151Z,15.04
2019-05-09T09:17:49.104Z,15.13
2019-05-09T09:20:18.887Z,14.71
2019-05-09T09:22:48.212Z,14.86
2019-05-09T09:25:18.365Z,15.11
2019-05-09T09:27:50.980Z,14.81
2019-05-09T09:30:24.665Z,15.20
2019-05-09T09:32:49.708Z,15.52
2019-05-09T09:35:18.662Z,15.30
2019-05-09T09:37:51.856Z,15.30
2019-05-09T09:40:18.009Z,14.98
2019-05-09T09:42:49.056Z,14.98
2019-05-09T09:45:18.521Z,15.07
2019-05-09T09:47:48.265Z,15.92
2019-05-09T09:50:17.837Z,15.92
2019-05-09T09:52:49.170Z,16.48
2019-05-09T09:55:18.456Z,17.13
2019-05-09T09:57:49.566Z,17.13
2019-05-09T10:01:03.183Z,18.26
2019-05-09T10:03:31.018Z,20.48
2019-05-09T10:05:59.942Z,20.48
2019-05-09T10:08:29.005Z,22.52
2019-05-09T10:10:59.131Z,23.49
2019-05-09T10:13:28.688Z,24.38
2019-05-09T10:16:25.438Z,25.77
2019-05-09T10:18:50.683Z,26.95
2019-05-09T10:21:22.357Z,28.30
2019-05-09T10:23:51.711Z,28.18
2019-05-09T10:26:19.940Z,29.46
2019-05-09T10:28:48.808Z,29.46
2019-05-09T10:31:17.728Z,28.88
2019-05-09T10:33:48.032Z,31.29
2019-05-09T10:36:16.706Z,31.73
2019-05-09T10:38:47.849Z,31.94
2019-05-09T10:41:16.921Z,31.02
2019-05-09T10:43:59.584Z,31.02
2019-05-09T10:46:57.593Z,30.65
2019-05-09T10:49:24.481Z,30.65
2019-05-09T10:51:53.581Z,27.85
2019-05-09T10:54:22.542Z,29.67
2019-05-09T10:56:51.447Z,31.92
2019-05-09T10:59:20.450Z,32.34
2019-05-09T11:01:49.846Z,31.56
2019-05-09T11:04:19.122Z,28.57
2019-05-09T11:06:48.045Z,27.17
2019-05-09T11:09:18.251Z,26.35
2019-05-09T11:11:48.362Z,26.65
2019-05-09T11:14:32.169Z,25.85
2019-05-09T11:16:51.177Z,24.72
2019-05-09T11:19:20.060Z,24.72
2019-05-09T11:21:48.978Z,23.82
2019-05-09T11:24:18.726Z,22.90
2019-05-09T11:26:48.233Z,23.13
2019-05-09T11:29:18.770Z,22.09
2019-05-09T11:31:48.058Z,21.41
2019-05-09T11:34:18.832Z,21.43
2019-05-09T11:36:49.841Z,21.56
2019-05-09T11:39:35.127Z,20.84
2019-05-09T11:41:50.044Z,19.68
2019-05-09T11:44:18.959Z,19.34
2019-05-09T11:46:48.013Z,19.62
2019-05-09T11:49:18.010Z,19.70
2019-05-09T11:51:48.230Z,19.50
2019-05-09T11:54:19.470Z,19.05
2019-05-09T11:56:48.409Z,18.64
2019-05-09T11:59:18.912Z,18.63
2019-05-09T12:01:48.334Z,18.37
2019-05-09T12:04:18.713Z,17.19
2019-05-09T12:06:49.349Z,17.19
2019-05-09T12:09:18.702Z,17.08
2019-05-09T12:11:48.301Z,16.93
2019-05-09T12:14:17.560Z,16.42
2019-05-09T12:16:48.030Z,16.42
2019-05-09T12:19:17.987Z,16.76
2019-05-09T12:21:48.288Z,16.59
2019-05-09T12:24:18.413Z,17.01
2019-05-09T12:26:48.272Z,17.08
2019-05-09T12:29:19.575Z,17.85
2019-05-09T12:31:48.770Z,17.84
2019-05-09T12:34:19.342Z,18.18
2019-05-09T12:36:49.489Z,18.35
2019-05-09T12:39:19.120Z,18.51
2019-05-09T12:41:48.658Z,18.46
2019-05-09T12:44:18.468Z,17.48
2019-05-09T12:46:48.709Z,17.84
2019-05-09T12:49:19.014Z,17.91
2019-05-09T12:51:48.740Z,17.95
2019-05-09T12:54:18.998Z,17.98
2019-05-09T12:56:48.829Z,18.09
2019-05-09T12:59:18.739Z,18.02
2019-05-09T13:03:13.106Z,18.58
2019-05-09T13:05:42.101Z,19.04
2019-05-09T13:08:11.587Z,18.83
2019-05-09T13:10:41.410Z,18.74
2019-05-09T13:13:10.955Z,18.74
2019-05-09T13:15:48.960Z,18.75
2019-05-09T13:18:25.002Z,19.85
2019-05-09T13:20:48.736Z,19.85
2019-05-09T13:23:18.051Z,20.01
2019-05-09T13:25:50.354Z,20.14
2019-05-09T13:28:18.471Z,19.73
2019-05-09T13:30:48.889Z,18.84
2019-05-09T13:33:18.921Z,18.55
2019-05-09T13:35:48.732Z,18.36
2019-05-09T13:38:18.129Z,18.04
2019-05-09T13:40:53.429Z,18.40
2019-05-09T13:43:22.883Z,18.29
2019-05-09T13:45:54.284Z,18.29
2019-05-09T13:48:37.029Z,18.64
2019-05-09T13:50:54.043Z,17.97
2019-05-09T13:53:24.926Z,17.89
2019-05-09T13:55:58.207Z,16.98
2019-05-09T13:58:30.140Z,16.73
2019-05-09T14:01:02.580Z,16.85
2019-05-09T14:03:31.641Z,16.42
2019-05-09T14:06:00.579Z,16.61
2019-05-09T14:08:31.297Z,16.61
2019-05-09T14:11:00.568Z,16.29
2019-05-09T14:13:31.266Z,16.18
2019-05-09T14:16:15.650Z,16.18
2019-05-09T14:18:38.416Z,16.32
2019-05-09T14:21:09.688Z,16.44
2019-05-09T14:24:19.328Z,16.58
2019-05-09T14:26:48.794Z,17.23
2019-05-09T14:29:21.022Z,17.49
2019-05-09T14:31:50.111Z,17.52
2019-05-09T14:34:19.879Z,17.37
2019-05-09T14:36:49.665Z,16.77
2019-05-09T14:39:19.540Z,16.76
2019-05-09T14:41:52.142Z,16.88
2019-05-09T14:44:21.782Z,17.21
2019-05-09T14:46:51.972Z,17.96
2019-05-09T14:49:21.499Z,18.04
2019-05-09T14:51:51.553Z,18.45
2019-05-09T14:54:21.520Z,17.83
2019-05-09T14:56:54.296Z,17.41
2019-05-09T14:59:28.608Z,17.63
2019-05-09T15:02:01.033Z,17.25
2019-05-09T15:04:33.744Z,17.25
2019-05-09T15:07:20.349Z,17.31
2019-05-09T15:09:59.811Z,17.14
2019-05-09T15:12:28.519Z,17.14
2019-05-09T15:15:12.418Z,16.66
2019-05-09T15:17:44.464Z,16.56
2019-05-09T15:20:14.090Z,16.79
2019-05-09T15:22:58.836Z,16.79
2019-05-09T15:27:09.987Z,15.98
2019-05-09T15:29:45.449Z,15.79
2019-05-09T15:32:21.361Z,15.99
2019-05-09T15:34:51.121Z,15.81
2019-05-09T15:37:21.018Z,15.81
2019-05-09T15:39:50.185Z,15.61
2019-05-09T15:42:26.185Z,15.64
2019-05-09T15:45:00.457Z,15.74
2019-05-09T15:47:33.433Z,16.11
2019-05-09T15:50:18.820Z,16.71
2019-05-09T15:52:40.521Z,16.86
2019-05-09T15:55:09.829Z,16.64
2019-05-09T15:57:40.942Z,16.65
2019-05-09T16:00:12.138Z,16.81
2019-05-09T16:02:42.816Z,17.31
2019-05-09T16:05:14.307Z,16.94
2019-05-09T16:07:44.423Z,17.61
2019-05-09T16:10:14.707Z,17.94
2019-05-09T16:12:44.201Z,18.31
2019-05-09T16:15:14.971Z,18.16
2019-05-09T16:17:48.421Z,17.82
2019-05-09T16:20:36.001Z,17.88
2019-05-09T16:22:50.593Z,17.92
2019-05-09T16:25:19.817Z,17.60
2019-05-09T16:27:49.015Z,17.60
2019-05-09T16:30:18.392Z,17.26
2019-05-09T16:32:48.140Z,16.93
2019-05-09T16:35:18.183Z,16.92
2019-05-09T16:37:58.369Z,16.76
2019-05-09T16:40:21.748Z,16.72
2019-05-09T16:42:50.391Z,16.80
2019-05-09T16:45:20.510Z,16.93
2019-05-09T16:47:52.497Z,16.95
2019-05-09T16:50:59.398Z,17.11
2019-05-09T16:53:18.398Z,17.18
2019-05-09T16:55:47.309Z,17.21
2019-05-09T16:58:18.596Z,16.98
2019-05-09T17:00:51.127Z,17.44
2019-05-09T17:03:23.290Z,17.67
2019-05-09T17:05:52.290Z,17.94
2019-05-09T17:08:21.689Z,17.67
2019-05-09T17:10:50.457Z,17.00
2019-05-09T17:13:19.736Z,17.09
2019-05-09T17:15:52.008Z,16.86
2019-05-09T17:18:23.208Z,16.80
2019-05-09T17:21:24.302Z,16.69
2019-05-09T17:23:52.583Z,16.56
2019-05-09T17:26:21.042Z,16.07
2019-05-09T17:28:56.555Z,16.07
2019-05-09T17:31:27.581Z,16.41
2019-05-09T17:33:57.954Z,16.76
2019-05-09T17:36:28.588Z,16.76
2019-05-09T17:38:58.558Z,16.52
2019-05-09T17:41:28.450Z,16.63
2019-05-09T17:43:58.273Z,16.37
2019-05-09T17:46:27.747Z,16.37
2019-05-09T17:48:58.337Z,16.06
2019-05-09T17:51:35.684Z,15.89
2019-05-09T17:54:01.548Z,16.16
2019-05-09T17:56:30.602Z,16.24
2019-05-09T17:58:59.426Z,15.91
2019-05-09T18:01:29.047Z,15.91
2019-05-09T18:03:59.772Z,16.15
2019-05-09T18:06:29.624Z,16.47
2019-05-09T18:09:03.443Z,16.36
2019-05-09T18:11:32.466Z,16.38
2019-05-09T18:14:01.523Z,16.23
2019-05-09T18:16:30.548Z,16.00
2019-05-09T18:19:01.707Z,15.99
2019-05-09T18:22:48.132Z,15.99
2019-05-09T18:25:22.634Z,15.98
2019-05-09T18:27:51.459Z,16.15
2019-05-09T18:30:21.282Z,15.79
2019-05-09T18:33:12.631Z,15.47
2019-05-09T18:35:41.862Z,15.29
2019-05-09T18:38:23.974Z,15.49
2019-05-09T18:40:57.863Z,15.25
2019-05-09T18:43:27.692Z,14.91
2019-05-09T18:45:57.756Z,14.91
2019-05-09T18:48:27.953Z,15.04
2019-05-09T18:51:04.317Z,15.06
2019-05-09T18:53:33.862Z,14.85
2019-05-09T18:56:04.892Z,14.69
2019-05-09T18:58:35.997Z,14.72
2019-05-09T19:01:04.996Z,14.84
2019-05-09T19:03:33.957Z,14.81
2019-05-09T19:06:02.988Z,14.68
2019-05-09T19:08:31.979Z,14.75
2019-05-09T19:11:01.664Z,14.71
2019-05-09T19:13:30.945Z,14.75
2019-05-09T19:16:28.564Z,14.96
2019-05-09T19:19:20.914Z,15.04
2019-05-09T19:21:53.640Z,14.62
2019-05-09T19:24:22.517Z,14.75
2019-05-09T19:26:51.756Z,14.94
2019-05-09T19:29:20.257Z,15.03
2019-05-09T19:31:53.619Z,15.08
2019-05-09T19:34:23.311Z,14.89
2019-05-09T19:36:52.589Z,14.91
2019-05-09T19:39:58.108Z,15.05
2019-05-09T19:42:31.165Z,14.81
2019-05-09T19:45:02.596Z,15.07
2019-05-09T19:47:35.074Z,14.79
2019-05-09T19:50:05.790Z,15.01
2019-05-09T19:52:38.432Z,14.74
2019-05-09T19:55:08.186Z,14.88
2019-05-09T19:57:39.777Z,15.24
2019-05-09T20:00:14.394Z,14.83
2019-05-09T20:02:44.605Z,15.16
2019-05-09T20:05:14.259Z,14.93
2019-05-09T20:07:44.019Z,14.56
2019-05-09T20:10:32.512Z,14.65
2019-05-09T20:13:24.159Z,14.55
2019-05-09T20:15:53.523Z,14.59
2019-05-09T20:18:23.585Z,14.68
2019-05-09T20:20:52.831Z,14.51
2019-05-09T20:23:22.436Z,14.51
2019-05-09T20:25:51.608Z,14.29
2019-05-09T20:30:30.938Z,14.19
2019-05-09T20:33:00.342Z,14.15
2019-05-09T20:35:29.579Z,14.30
2019-05-09T20:37:58.722Z,14.12
2019-05-09T20:40:26.866Z,14.12
2019-05-09T20:42:56.077Z,14.18
2019-05-09T20:45:25.526Z,14.15
2019-05-09T20:47:54.570Z,14.03
2019-05-09T20:50:23.431Z,13.92
2019-05-09T20:53:00.857Z,14.01
2019-05-09T20:55:23.415Z,14.07
2019-05-09T20:57:52.439Z,13.64
2019-05-09T21:00:21.755Z,13.83
2019-05-09T21:02:50.918Z,13.49
2019-05-09T21:05:19.948Z,13.57
2019-05-09T21:07:48.899Z,13.38
2019-05-09T21:10:18.298Z,13.80
2019-05-09T21:12:47.133Z,13.73
2019-05-09T21:15:17.078Z,13.78
2019-05-09T21:17:46.066Z,13.92
2019-05-09T21:20:16.049Z,13.90
2019-05-09T21:22:45.599Z,14.02
2019-05-09T21:25:16.118Z,13.57
2019-05-09T21:27:46.778Z,13.57
2019-05-09T21:30:15.788Z,13.50
2019-05-09T21:32:45.607Z,13.39
2019-05-09T21:35:15.614Z,13.23
2019-05-09T21:37:45.124Z,13.24
2019-05-09T21:40:15.305Z,13.24
2019-05-09T21:42:44.722Z,13.07
2019-05-09T21:45:13.681Z,13.12
2019-05-09T21:47:43.459Z,12.67
2019-05-09T21:50:14.706Z,12.67
2019-05-09T21:52:43.869Z,12.57
2019-05-09T21:55:15.053Z,12.67
2019-05-09T21:57:45.300Z,12.74
2019-05-09T22:00:25.033Z,12.56
2019-05-09T22:02:55.948Z,12.48
2019-05-09T22:05:25.320Z,12.76
2019-05-09T22:07:54.414Z,12.42
2019-05-09T22:10:23.739Z,12.46
2019-05-09T22:12:52.597Z,12.35
2019-05-09T22:15:21.573Z,12.38
2019-05-09T22:17:51.573Z,12.38
2019-05-09T22:20:21.118Z,12.80
2019-05-09T22:22:49.926Z,12.41
2019-05-09T22:25:19.104Z,12.58
2019-05-09T22:27:48.021Z,12.54
2019-05-09T22:30:17.731Z,12.66
2019-05-09T22:32:45.982Z,12.73
2019-05-09T22:35:15.725Z,12.54
2019-05-09T22:37:44.589Z,12.50
2019-05-09T22:40:15.931Z,12.58
2019-05-09T22:42:46.491Z,12.58
2019-05-09T22:45:16.163Z,12.49
2019-05-09T22:47:46.038Z,12.69
2019-05-09T22:50:15.712Z,12.86
2019-05-09T22:52:44.685Z,12.67
2019-05-09T22:55:14.506Z,12.50
2019-05-09T22:57:46.467Z,12.50
2019-05-09T23:00:16.397Z,12.53
2019-05-09T23:02:46.087Z,12.70
2019-05-09T23:05:15.937Z,12.64
2019-05-09T23:07:45.565Z,12.51
2019-05-09T23:10:16.171Z,12.30
2019-05-09T23:12:45.781Z,12.53
2019-05-09T23:15:17.084Z,12.35
2019-05-09T23:17:46.602Z,12.42
2019-05-09T23:20:34.958Z,12.46
2019-05-09T23:23:24.508Z,12.46
2019-05-09T23:25:53.398Z,12.52
2019-05-09T23:28:22.674Z,12.37
2019-05-09T23:30:54.107Z,12.25
2019-05-09T23:33:24.846Z,12.25
2019-05-09T23:35:54.063Z,12.20
2019-05-09T23:38:23.010Z,12.33
2019-05-09T23:40:51.953Z,12.18
2019-05-09T23:43:20.955Z,12.18
2019-05-09T23:45:50.046Z,12.19
2019-05-09T23:48:19.052Z,12.19
2019-05-09T23:50:48.125Z,12.00
2019-05-09T23:53:30.905Z,11.72
2019-05-09T23:56:18.758Z,11.82
2019-05-09T23:59:05.521Z,11.59
